Tiempo atmosférico en la estación meteorológica de Alforja, Tarragona (406 m.)



Fecha
DESCASC
Temp. máxima en grados centígrados (hora)
DESCASC
Temp. mínima en grados centígrados (hora)
DESCASC
Temp. media en grados centígrados
DESCASC
Racha de viento máxima en m/sg (hora)
DESCASC
Velocidad máxima media en intervalos de 10 minutos(hora)
DESCASC
Precipitaciones diarias en mm
DESCASC
Precipitaciones de 00:00 a 06:00 en mm
DESCASC
Precipitaciones de 06:00 a 12:00 en mm
DESCASC
Precipitaciones de 12:00 a 18:00 en mm
DESCASC
Precipitaciones de 18:00 a 24:00 en mm
DESCASC

Gráficas

Temp. máximas Temp. mínimas Temp. medias Precipitaciones Rachas de viento máximas Velocidades máximas media en intervalos de 10 minutos

Datos horarios

Fecha y hora oficial Temperatura (ºC) Velocidad del viento (km/h) Dirección del viento Racha (km/h) Dirección de racha Precipitación (mm) Presión (hPa) Tendencia (hPa) Humedad (%)
2020-01-16 11:00:00 -- -- -- -- -- -- -- -- --
2020-01-16 10:00:00 9.4 2 Sur 6 Sudoeste 0 -- -- 76
2020-01-16 09:00:00 5.2 3 Sudoeste 8 Norte 0 -- -- 91
2020-01-16 08:00:00 5.4 0 Calma 12 Oeste 0 -- -- 87
2020-01-16 07:00:00 7.3 4 Oeste 17 Oeste 0 -- -- 80
2020-01-16 06:00:00 7.8 9 Oeste 18 Oeste 0 -- -- 78
2020-01-16 05:00:00 8.2 13 Sudoeste 21 Sudoeste 0 -- -- 75
2020-01-16 04:00:00 7 6 Oeste 15 Sudoeste 0 -- -- 79
2020-01-16 03:00:00 7.5 9 Oeste 15 Noroeste 0 -- -- 76
2020-01-16 02:00:00 7.7 9 Oeste 15 Sudoeste 0 -- -- 75
2020-01-16 01:00:00 6.9 7 Oeste 14 Oeste 0 -- -- 79
2020-01-16 00:00:00 7.2 2 Este 11 Oeste 0 -- -- 76
2020-01-15 23:00:00 8.3 8 Sudoeste 14 Sudoeste 0 -- -- 71
2020-01-15 22:00:00 8.8 10 Oeste 18 Oeste 0 -- -- 68
2020-01-15 21:00:00 9.3 9 Oeste 21 Oeste 0 -- -- 65
2020-01-15 20:00:00 9 12 Oeste 20 Sudoeste 0 -- -- 66
2020-01-15 19:00:00 10 8 Oeste 18 Noroeste 0 -- -- 61
2020-01-15 18:00:00 10.7 9 Noroeste 21 Oeste 0 -- -- 59
2020-01-15 17:00:00 12.7 14 Oeste 27 Oeste 0 -- -- 53
2020-01-15 16:00:00 13.3 17 Oeste 27 Oeste 0 -- -- 51
2020-01-15 15:00:00 12.8 15 Oeste 29 Noroeste 0 -- -- 54
2020-01-15 14:00:00 13.9 12 Oeste 30 Oeste 0 -- -- 51
2020-01-15 13:00:00 13.9 12 Oeste 24 Oeste 0 -- -- 51
2020-01-15 12:00:00 12.7 14 Oeste 23 Oeste 0 -- -- 55
2020-01-15 11:00:00 9.8 3 Sudeste 6 Este 0 -- -- 61
2020-01-15 10:00:00 7.7 4 Nordeste 8 Este 0 -- -- 64
2020-01-15 09:00:00 2.8 3 Oeste 9 Sudoeste 0 -- -- 80
2020-01-15 08:00:00 3.5 4 Sudoeste 17 Oeste 0 -- -- 72
2020-01-15 07:00:00 2 6 Oeste 13 Oeste 0 -- -- 81
2020-01-15 06:00:00 0.2 2 Oeste 9 Sudoeste 0 -- -- 88
2020-01-15 05:00:00 0.7 4 Oeste 9 Oeste 0 -- -- 88
2020-01-15 04:00:00 0.8 5 Oeste 9 Oeste 0 -- -- 88
2020-01-15 03:00:00 0.5 0 Calma 8 Oeste 0 -- -- 90
2020-01-15 02:00:00 1.2 6 Oeste 10 Oeste 0 -- -- 92
2020-01-15 01:00:00 1.2 5 Oeste 9 Oeste 0 -- -- 93